Time;durP1;ratioP1;P1;durP2;ratioP2;P2;SDS_P1;SDS_P2;PMS_P1;PMS_P2;Temp;Humidity;BMP_temperature;BMP_pressure;BME280_temperature;BME280_humidity;BME280_pressure;Samples;Min_cycle;Max_cycle;Signal;HPM_P1;HPM_P2
2023/01/06 00:01:34;;;;;;;7.57;6.00;;;;;;;8.43;54.69;95252.63;5001748;28;20224;-66
2023/01/06 00:03:59;;;;;;;9.13;6.80;;;;;;;8.53;54.67;95265.75;5006864;28;20215;-66
2023/01/06 00:06:27;;;;;;;9.20;6.67;;;;;;;8.59;54.30;95263.44;4996833;28;20214;-66
2023/01/06 00:08:58;;;;;;;10.37;7.00;;;;;;;8.42;54.47;95271.09;5003547;28;20220;-65
2023/01/06 00:11:24;;;;;;;10.17;6.67;;;;;;;8.44;54.85;95274.41;5013922;28;20242;-65
2023/01/06 00:13:50;;;;;;;9.07;6.40;;;;;;;8.63;54.16;95284.13;5013616;28;20238;-65
2023/01/06 00:16:17;;;;;;;8.27;6.60;;;;;;;8.60;54.64;95282.59;5011090;28;20696;-65
2023/01/06 00:18:43;;;;;;;7.23;6.50;;;;;;;8.69;54.33;95294.91;5024239;28;20294;-65
2023/01/06 00:21:11;;;;;;;10.07;7.60;;;;;;;8.76;54.17;95301.28;5024686;28;20210;-66
2023/01/06 00:23:37;;;;;;;12.60;7.57;;;;;;;8.83;54.10;95296.34;5003178;28;20211;-66
2023/01/06 00:26:04;;;;;;;8.97;7.13;;;;;;;8.89;53.35;95313.31;5006495;28;20219;-66
2023/01/06 00:28:30;;;;;;;9.53;7.33;;;;;;;8.89;53.63;95315.94;5009932;28;20281;-66
2023/01/06 00:30:56;;;;;;;12.03;7.60;;;;;;;8.80;54.04;95323.66;4982714;28;20215;-66
2023/01/06 00:33:22;;;;;;;9.47;7.17;;;;;;;8.96;54.02;95327.56;5019582;28;20189;-65
2023/01/06 00:35:48;;;;;;;10.00;6.63;;;;;;;8.96;53.61;95320.53;5009768;28;20246;-66
2023/01/06 00:38:13;;;;;;;8.33;6.30;;;;;;;8.92;53.79;95310.44;5008065;28;20246;-66
2023/01/06 00:40:39;;;;;;;10.00;7.20;;;;;;;8.94;53.35;95303.25;5014965;28;20207;-66
2023/01/06 00:43:04;;;;;;;10.50;6.80;;;;;;;8.93;53.75;95307.69;5014838;28;20218;-65
2023/01/06 00:45:30;;;;;;;9.13;6.37;;;;;;;8.83;53.88;95298.97;5015148;28;20185;-65
2023/01/06 00:47:55;;;;;;;6.93;6.10;;;;;;;8.90;54.12;95315.81;5010029;28;20322;-65
2023/01/06 00:50:21;;;;;;;8.50;6.43;;;;;;;8.91;54.14;95320.09;5010547;28;20218;-65
2023/01/06 00:52:47;;;;;;;10.27;6.17;;;;;;;9.09;53.75;95327.28;5008015;28;20215;-65
2023/01/06 00:55:12;;;;;;;9.90;6.30;;;;;;;8.99;54.02;95324.69;5004656;28;20230;-65
2023/01/06 00:57:38;;;;;;;6.67;5.67;;;;;;;8.90;54.23;95320.22;4994248;28;20218;-65
2023/01/06 01:00:06;;;;;;;9.00;5.53;;;;;;;9.04;54.46;95325.09;4996662;28;20234;-65
2023/01/06 01:02:31;;;;;;;8.23;6.17;;;;;;;8.86;55.01;95322.28;4999021;28;20223;-65
2023/01/06 01:04:57;;;;;;;8.30;5.50;;;;;;;8.96;55.08;95324.94;5004061;28;20239;-65
2023/01/06 01:07:22;;;;;;;8.97;5.20;;;;;;;8.92;55.15;95315.66;4994663;28;20264;-65
2023/01/06 01:09:47;;;;;;;7.73;4.77;;;;;;;9.02;55.31;95321.78;5020965;28;20179;-65
2023/01/06 01:12:13;;;;;;;6.77;4.60;;;;;;;9.08;55.21;95310.72;5010345;28;20206;-65
2023/01/06 01:14:47;;;;;;;9.20;5.23;;;;;;;8.98;55.76;95320.38;5012427;28;20230;-66
2023/01/06 01:17:16;;;;;;;6.00;5.00;;;;;;;9.09;55.65;95327.28;4997165;28;20254;-65
2023/01/06 01:19:41;;;;;;;6.53;4.70;;;;;;;9.14;55.68;95318.09;4998231;28;20222;-66
2023/01/06 01:22:08;;;;;;;7.10;5.07;;;;;;;8.99;55.92;95316.81;5025126;28;20230;-66
2023/01/06 01:24:33;;;;;;;8.20;5.10;;;;;;;9.10;55.75;95328.97;5010328;28;20187;-66
2023/01/06 01:26:59;;;;;;;6.47;4.90;;;;;;;9.13;55.41;95328.69;5025438;28;20330;-66
2023/01/06 01:29:25;;;;;;;6.30;4.80;;;;;;;9.33;55.29;95332.16;5014760;28;20317;-66
2023/01/06 01:31:50;;;;;;;8.67;5.93;;;;;;;9.28;55.22;95328.19;5009036;28;20242;-66
2023/01/06 01:34:17;;;;;;;5.43;4.30;;;;;;;9.09;55.82;95315.03;5006200;28;20218;-66
2023/01/06 01:36:45;;;;;;;6.30;5.00;;;;;;;8.98;56.36;95318.59;5021780;28;20206;-66
2023/01/06 01:39:12;;;;;;;5.10;4.57;;;;;;;9.12;55.90;95308.69;5004189;28;20296;-66
2023/01/06 01:41:38;;;;;;;5.20;4.30;;;;;;;8.94;56.25;95295.41;5007309;28;20248;-66
2023/01/06 01:44:41;;;;;;;6.07;3.93;;;;;;;9.14;55.45;95294.47;5004978;28;20222;-65
2023/01/06 01:47:08;;;;;;;6.20;4.63;;;;;;;9.26;55.28;95288.13;5019460;28;20215;-65
2023/01/06 01:49:38;;;;;;;5.40;4.10;;;;;;;9.18;55.44;95284.53;5003948;28;20233;-65
2023/01/06 01:52:04;;;;;;;6.40;4.10;;;;;;;9.10;55.62;95277.34;5023114;28;20206;-66
2023/01/06 01:54:33;;;;;;;6.60;4.07;;;;;;;8.98;55.82;95266.16;5002346;28;20445;-66
2023/01/06 01:57:07;;;;;;;5.30;4.33;;;;;;;9.03;55.68;95265.72;5001996;28;20343;-65
2023/01/06 01:59:36;;;;;;;5.73;4.17;;;;;;;9.32;54.72;95265.75;5022706;28;20279;-66
2023/01/06 02:02:01;;;;;;;5.07;3.70;;;;;;;8.94;55.75;95258.69;5006931;28;20226;-66
2023/01/06 02:04:28;;;;;;;4.27;3.73;;;;;;;8.89;56.06;95271.38;5010692;28;20542;-66
2023/01/06 02:06:54;;;;;;;3.77;3.37;;;;;;;9.04;55.54;95272.63;5009830;28;20285;-66
2023/01/06 02:09:36;;;;;;;4.17;3.70;;;;;;;9.13;55.15;95278.84;5010920;28;20325;-66
2023/01/06 02:12:02;;;;;;;6.17;3.67;;;;;;;9.14;54.98;95270.88;5000019;28;20256;-66
2023/01/06 02:14:28;;;;;;;4.50;3.47;;;;;;;9.22;54.64;95278.88;4988743;28;20361;-67
2023/01/06 02:17:12;;;;;;;4.30;3.80;;;;;;;9.28;54.86;95298.50;4998048;28;20274;-65
2023/01/06 02:20:15;;;;;;;4.20;3.27;;;;;;;9.22;54.71;95289.38;5021363;28;20273;-66
2023/01/06 02:23:13;;;;;;;6.30;3.50;;;;;;;9.35;54.47;95286.47;5006965;28;20227;-66
2023/01/06 02:25:50;;;;;;;3.33;3.00;;;;;;;9.16;54.44;95300.38;5020293;28;20240;-66
2023/01/06 02:28:40;;;;;;;4.57;2.70;;;;;;;9.20;54.39;95293.09;5024493;28;20267;-66
2023/01/06 02:31:36;;;;;;;4.87;3.03;;;;;;;9.26;53.66;95303.84;5015177;28;20262;-66
2023/01/06 02:34:20;;;;;;;3.20;2.73;;;;;;;9.19;54.06;95302.75;5023961;28;20191;-66
2023/01/06 02:36:54;;;;;;;5.27;2.80;;;;;;;9.25;53.63;95304.84;5029166;28;20182;-66
2023/01/06 02:39:53;;;;;;;3.87;3.10;;;;;;;9.09;53.84;95294.06;5023225;28;20277;-64
2023/01/06 02:42:46;;;;;;;4.20;3.10;;;;;;;9.02;54.17;95308.66;5007193;28;20310;-65
2023/01/06 02:45:26;;;;;;;3.07;2.60;;;;;;;9.02;53.94;95295.53;5002748;28;20216;-66
2023/01/06 02:48:08;;;;;;;4.23;2.80;;;;;;;9.11;53.60;95288.66;5013705;28;20219;-65
2023/01/06 02:50:45;;;;;;;3.20;2.70;;;;;;;8.96;53.95;95296.91;5015676;28;20239;-65
2023/01/06 02:53:16;;;;;;;5.07;2.93;;;;;;;9.09;53.62;95280.06;5005594;28;20219;-65
2023/01/06 02:55:45;;;;;;;6.20;2.90;;;;;;;9.11;53.65;95275.53;5009631;28;20227;-66
2023/01/06 02:58:14;;;;;;;4.57;3.33;;;;;;;9.02;53.85;95275.38;5011405;28;20282;-66
2023/01/06 03:00:48;;;;;;;5.50;3.13;;;;;;;9.04;53.50;95272.63;5006172;28;20183;-66
2023/01/06 03:03:18;;;;;;;5.23;3.27;;;;;;;8.99;53.66;95280.09;5014162;28;20245;-65
2023/01/06 03:05:48;;;;;;;4.37;3.17;;;;;;;8.99;53.84;95291.41;5000242;28;20252;-65
2023/01/06 03:08:27;;;;;;;4.07;3.17;;;;;;;8.98;53.80;95265.28;4981931;28;20224;-65
2023/01/06 03:10:55;;;;;;;4.27;3.30;;;;;;;9.02;53.77;95271.94;4988717;28;20215;-65
2023/01/06 03:13:20;;;;;;;3.30;3.00;;;;;;;9.04;53.66;95257.72;4983463;28;20306;-65
2023/01/06 03:15:46;;;;;;;3.87;3.00;;;;;;;9.18;52.77;95259.13;4987110;28;20196;-67
2023/01/06 03:18:11;;;;;;;3.53;2.80;;;;;;;9.10;53.01;95271.25;4989803;28;20187;-65
2023/01/06 03:20:37;;;;;;;3.73;2.80;;;;;;;9.13;53.13;95265.75;4996743;28;20211;-65
2023/01/06 03:23:03;;;;;;;4.07;2.90;;;;;;;9.16;52.96;95266.28;5006610;28;20230;-65
2023/01/06 03:25:28;;;;;;;3.87;3.00;;;;;;;9.08;53.16;95266.13;5000920;28;20266;-65
2023/01/06 03:27:54;;;;;;;4.17;2.80;;;;;;;8.97;53.45;95266.28;4988138;28;20196;-65
2023/01/06 03:30:19;;;;;;;3.87;2.77;;;;;;;8.98;52.92;95267.91;4992239;28;20198;-65
2023/01/06 03:32:45;;;;;;;5.63;3.03;;;;;;;8.89;53.36;95266.13;5005186;28;20235;-65
2023/01/06 03:35:38;;;;;;;3.47;2.90;;;;;;;8.77;53.50;95273.28;4998209;28;20223;-65
2023/01/06 03:38:11;;;;;;;3.73;2.93;;;;;;;8.78;54.21;95269.69;5008554;28;20226;-65
2023/01/06 03:40:48;;;;;;;6.30;3.10;;;;;;;8.84;53.52;95274.38;5005406;28;20222;-65
2023/01/06 03:43:22;;;;;;;4.67;2.90;;;;;;;8.84;53.47;95280.44;5009991;28;20244;-65
2023/01/06 03:45:52;;;;;;;5.03;3.50;;;;;;;8.57;54.07;95302.03;5016720;28;20186;-65
2023/01/06 03:48:55;;;;;;;3.63;2.90;;;;;;;8.75;53.57;95293.56;5003724;28;20207;-65
2023/01/06 03:51:46;;;;;;;3.43;2.97;;;;;;;8.63;53.64;95319.03;5009223;28;20326;-65
2023/01/06 03:54:24;;;;;;;3.47;2.60;;;;;;;8.62;53.91;95314.75;4990061;28;20212;-65
2023/01/06 03:57:11;;;;;;;4.23;3.10;;;;;;;8.69;53.89;95315.91;5017242;28;20249;-65
2023/01/06 03:59:52;;;;;;;3.77;2.90;;;;;;;8.68;53.77;95313.41;5004058;28;20222;-66
2023/01/06 04:02:22;;;;;;;4.93;2.80;;;;;;;8.66;53.79;95331.03;5015499;28;20223;-66
2023/01/06 04:05:14;;;;;;;3.33;2.77;;;;;;;8.75;53.42;95336.31;4997673;28;20227;-64
2023/01/06 04:07:41;;;;;;;3.90;2.93;;;;;;;8.76;53.15;95334.53;4988003;28;20227;-65
2023/01/06 04:10:07;;;;;;;3.30;2.80;;;;;;;8.56;53.49;95331.03;5006280;28;20230;-64
2023/01/06 04:12:38;;;;;;;4.87;2.93;;;;;;;8.49;53.86;95342.97;4993830;28;20277;-65
2023/01/06 04:15:10;;;;;;;3.33;3.03;;;;;;;8.64;53.35;95344.28;5021202;28;20219;-65
2023/01/06 04:17:36;;;;;;;3.90;2.67;;;;;;;8.73;52.84;95340.88;5006525;28;20227;-65
2023/01/06 04:20:03;;;;;;;4.20;2.80;;;;;;;8.38;53.74;95349.09;5005305;28;20227;-64
2023/01/06 04:22:28;;;;;;;4.80;2.83;;;;;;;8.46;53.71;95315.25;5000557;28;20325;-64
2023/01/06 04:24:54;;;;;;;4.77;3.00;;;;;;;8.31;53.77;95316.50;5010678;28;21085;-64
2023/01/06 04:27:19;;;;;;;4.53;3.00;;;;;;;8.49;53.18;95309.72;5006347;28;20278;-64
2023/01/06 04:29:45;;;;;;;3.93;3.17;;;;;;;8.55;52.93;95326.72;5002622;28;20248;-65
2023/01/06 04:32:10;;;;;;;3.83;2.80;;;;;;;8.56;53.31;95354.59;5002018;28;20342;-65
2023/01/06 04:34:37;;;;;;;3.73;2.80;;;;;;;8.57;53.07;95359.69;4984805;28;20230;-65
2023/01/06 04:37:03;;;;;;;3.17;2.77;;;;;;;8.64;52.80;95367.06;5007473;28;20227;-64
2023/01/06 04:39:29;;;;;;;5.10;2.73;;;;;;;8.56;53.01;95372.97;5005977;28;20195;-64
2023/01/06 04:41:54;;;;;;;4.17;2.50;;;;;;;8.54;53.40;95375.69;4999677;28;20227;-64
2023/01/06 04:44:19;;;;;;;4.07;2.60;;;;;;;8.60;53.08;95384.81;4998764;28;20223;-65
2023/01/06 04:46:45;;;;;;;3.10;2.60;;;;;;;8.49;53.41;95377.06;5000657;28;20223;-65
2023/01/06 04:49:11;;;;;;;4.73;2.50;;;;;;;8.52;53.34;95384.66;5007307;28;20219;-65
2023/01/06 04:51:36;;;;;;;3.00;2.70;;;;;;;8.56;53.04;95381.63;5011635;28;20297;-64
2023/01/06 04:54:02;;;;;;;3.03;2.73;;;;;;;8.54;53.25;95396.66;5007384;28;20319;-65
2023/01/06 04:56:27;;;;;;;3.37;2.60;;;;;;;8.43;53.07;95398.53;5007214;28;20246;-65
2023/01/06 04:58:56;;;;;;;4.17;2.70;;;;;;;8.54;52.82;95395.84;5004414;28;20255;-65
2023/01/06 05:01:24;;;;;;;3.60;2.67;;;;;;;8.55;52.75;95413.22;5008170;28;20305;-65
2023/01/06 05:03:50;;;;;;;3.50;2.40;;;;;;;8.46;53.17;95391.25;5008745;28;20202;-65
2023/01/06 05:06:16;;;;;;;3.70;2.47;;;;;;;8.59;52.88;95412.00;5026620;28;20188;-65
2023/01/06 05:08:42;;;;;;;2.70;2.23;;;;;;;8.58;52.77;95397.22;5009312;28;20233;-64
2023/01/06 05:11:13;;;;;;;3.93;2.53;;;;;;;8.69;52.51;95404.19;5014039;28;20227;-64
2023/01/06 05:13:39;;;;;;;4.47;2.43;;;;;;;8.44;53.03;95390.53;5009495;28;20231;-64
2023/01/06 05:16:07;;;;;;;3.40;2.40;;;;;;;8.55;53.24;95403.59;5009718;28;21682;-64
2023/01/06 05:18:32;;;;;;;3.83;2.33;;;;;;;8.29;53.59;95395.25;5007192;28;20265;-64
2023/01/06 05:20:57;;;;;;;3.63;2.83;;;;;;;8.36;53.57;95406.03;5025882;28;20357;-65
2023/01/06 05:23:23;;;;;;;3.47;2.70;;;;;;;8.52;53.21;95410.84;5008116;28;20220;-65
2023/01/06 05:25:52;;;;;;;2.47;2.03;;;;;;;8.50;53.26;95413.63;5006577;28;20293;-64
2023/01/06 05:28:18;;;;;;;3.20;2.20;;;;;;;8.60;52.88;95408.41;5003513;28;20230;-64
2023/01/06 05:30:44;;;;;;;4.67;2.40;;;;;;;8.55;52.89;95416.69;5003613;28;20219;-64
2023/01/06 05:33:09;;;;;;;4.90;2.20;;;;;;;8.35;53.26;95413.06;5020895;28;20215;-65
2023/01/06 05:35:35;;;;;;;3.77;2.40;;;;;;;8.38;53.23;95407.56;5007401;28;20230;-65
2023/01/06 05:38:00;;;;;;;2.40;1.83;;;;;;;8.49;52.94;95416.34;5021061;28;20219;-65
2023/01/06 05:40:27;;;;;;;3.80;2.43;;;;;;;8.50;53.18;95424.09;5022587;28;20229;-65
2023/01/06 05:42:54;;;;;;;2.60;2.37;;;;;;;8.49;52.98;95429.47;5005546;28;20225;-66
2023/01/06 05:45:19;;;;;;;5.53;2.80;;;;;;;8.46;53.30;95437.59;5003613;28;20193;-65
2023/01/06 05:47:45;;;;;;;3.47;2.53;;;;;;;8.50;52.88;95431.97;5004968;28;20220;-65
2023/01/06 05:50:10;;;;;;;3.87;2.20;;;;;;;8.65;52.24;95429.81;4985395;28;20283;-65
2023/01/06 05:52:36;;;;;;;3.50;2.30;;;;;;;8.54;52.50;95437.78;4986940;28;20229;-65
2023/01/06 05:55:03;;;;;;;3.63;2.70;;;;;;;8.50;52.26;95441.59;4980686;28;20222;-64
2023/01/06 05:57:31;;;;;;;3.93;2.60;;;;;;;8.48;52.29;95433.06;5003177;28;20247;-66
2023/01/06 05:59:57;;;;;;;2.80;2.40;;;;;;;8.54;52.04;95432.53;5003294;28;20218;-66
2023/01/06 06:02:22;;;;;;;4.50;2.40;;;;;;;8.50;52.11;95452.94;5000028;28;20216;-65
2023/01/06 06:04:48;;;;;;;3.73;2.60;;;;;;;8.48;51.70;95443.53;5003768;28;20218;-66
2023/01/06 06:07:13;;;;;;;4.57;2.40;;;;;;;8.50;51.40;95439.84;4999965;28;20241;-66
2023/01/06 06:09:39;;;;;;;4.13;2.47;;;;;;;8.54;51.37;95448.25;5030959;28;20242;-65
2023/01/06 06:12:05;;;;;;;4.27;2.60;;;;;;;8.49;51.25;95440.78;5013362;28;20290;-66
2023/01/06 06:14:31;;;;;;;3.07;2.60;;;;;;;8.36;51.17;95445.34;5008159;28;20253;-66
2023/01/06 06:16:56;;;;;;;4.90;2.37;;;;;;;8.48;51.29;95454.03;5018373;28;20250;-66
2023/01/06 06:19:22;;;;;;;3.70;2.53;;;;;;;8.42;51.28;95462.38;5020495;28;20218;-65
2023/01/06 06:21:47;;;;;;;3.83;2.30;;;;;;;8.62;51.94;95461.56;5004134;28;20206;-64
2023/01/06 06:24:13;;;;;;;7.43;2.27;;;;;;;8.51;51.10;95461.63;5026369;28;20197;-64
2023/01/06 06:26:38;;;;;;;3.20;2.20;;;;;;;8.55;50.98;95455.16;5008141;28;20234;-65
2023/01/06 06:29:06;;;;;;;3.03;2.60;;;;;;;8.56;50.89;95462.06;5004402;28;20231;-65
2023/01/06 06:31:32;;;;;;;4.40;2.77;;;;;;;8.56;50.55;95459.44;5004262;28;20596;-65
2023/01/06 06:33:59;;;;;;;3.43;2.23;;;;;;;8.64;50.11;95458.81;4983872;28;20192;-64
2023/01/06 06:36:25;;;;;;;3.00;2.30;;;;;;;8.72;49.61;95466.88;4985218;28;20179;-64
2023/01/06 06:38:52;;;;;;;3.37;2.20;;;;;;;8.73;49.40;95460.66;5003297;28;20238;-65
2023/01/06 06:41:18;;;;;;;4.13;2.20;;;;;;;8.73;49.19;95447.53;5002284;28;20217;-65
2023/01/06 06:43:44;;;;;;;4.43;2.13;;;;;;;8.46;49.91;95451.50;4990608;28;20227;-64
2023/01/06 06:46:09;;;;;;;2.30;1.80;;;;;;;8.58;49.86;95460.97;5002216;28;20219;-67
2023/01/06 06:48:35;;;;;;;2.37;2.17;;;;;;;8.73;49.21;95466.72;5002098;28;20184;-67
2023/01/06 06:51:04;;;;;;;3.20;1.80;;;;;;;8.90;48.75;95464.44;5002281;28;20250;-67
2023/01/06 06:53:31;;;;;;;2.10;1.70;;;;;;;8.76;48.46;95457.75;4999106;28;20218;-68
2023/01/06 06:55:57;;;;;;;3.17;1.90;;;;;;;8.82;48.69;95458.09;4998548;28;20327;-68
2023/01/06 06:58:23;;;;;;;4.50;1.93;;;;;;;8.63;49.15;95465.00;4997509;28;20298;-69
2023/01/06 07:00:49;;;;;;;2.27;1.83;;;;;;;8.66;49.15;95465.59;4982123;28;20203;-66
2023/01/06 07:03:14;;;;;;;4.73;1.97;;;;;;;8.91;48.71;95472.19;4999847;28;20261;-68
2023/01/06 07:05:44;;;;;;;4.27;2.00;;;;;;;9.04;48.27;95472.00;5008640;28;20222;-68
2023/01/06 07:08:11;;;;;;;2.70;1.87;;;;;;;9.06;48.36;95467.44;5006914;28;20297;-67
2023/01/06 07:10:37;;;;;;;2.97;1.90;;;;;;;9.18;48.27;95478.69;4994365;28;20306;-70
2023/01/06 07:13:02;;;;;;;2.83;2.00;;;;;;;9.34;47.91;95470.31;4990882;28;20303;-70
2023/01/06 07:15:28;;;;;;;2.17;1.87;;;;;;;9.40;47.62;95465.34;4989653;28;20188;-67
2023/01/06 07:17:53;;;;;;;3.53;1.97;;;;;;;9.35;47.58;95477.22;4998602;28;20221;-65
2023/01/06 07:20:23;;;;;;;3.43;2.20;;;;;;;9.19;48.21;95483.78;4998082;28;20234;-67
2023/01/06 07:22:49;;;;;;;3.70;1.87;;;;;;;9.23;47.75;95474.69;4980799;28;20234;-66
2023/01/06 07:25:14;;;;;;;2.33;2.00;;;;;;;9.19;47.89;95486.41;5013367;28;20241;-66
2023/01/06 07:27:40;;;;;;;3.60;2.23;;;;;;;9.38;47.30;95490.91;5001935;28;20201;-67
2023/01/06 07:30:06;;;;;;;4.50;1.83;;;;;;;9.03;47.95;95486.06;5008661;28;20222;-67
2023/01/06 07:32:31;;;;;;;3.43;1.67;;;;;;;9.21;47.66;95488.91;5017719;28;20331;-66
2023/01/06 07:34:57;;;;;;;3.40;1.90;;;;;;;9.44;47.22;95486.94;5002306;28;20226;-67
2023/01/06 07:37:22;;;;;;;3.30;2.03;;;;;;;9.40;47.17;95506.53;5003496;28;20273;-66
2023/01/06 07:39:48;;;;;;;1.93;1.57;;;;;;;9.37;47.18;95505.00;5003401;28;20199;-65
2023/01/06 07:42:13;;;;;;;4.67;1.90;;;;;;;9.41;47.04;95500.28;5008223;28;20193;-64
2023/01/06 07:44:39;;;;;;;3.50;1.80;;;;;;;9.33;47.04;95497.50;5008261;28;20227;-66
2023/01/06 07:47:05;;;;;;;3.17;1.70;;;;;;;9.37;47.13;95504.16;5001362;28;20269;-67
2023/01/06 07:49:30;;;;;;;2.90;1.80;;;;;;;9.65;46.54;95498.19;4981946;28;20227;-66
2023/01/06 07:51:56;;;;;;;3.50;1.90;;;;;;;9.62;46.73;95500.22;5007057;28;20203;-67
2023/01/06 07:54:21;;;;;;;1.70;1.60;;;;;;;9.60;46.46;95524.00;5023739;28;20195;-65
2023/01/06 07:56:47;;;;;;;2.30;1.90;;;;;;;9.80;46.10;95516.19;5010715;28;20341;-66
2023/01/06 07:59:12;;;;;;;6.93;2.10;;;;;;;9.79;46.58;95528.47;5013833;28;20232;-68
2023/01/06 08:01:37;;;;;;;2.63;1.87;;;;;;;9.59;46.79;95522.31;5004012;28;20273;-65
2023/01/06 08:04:03;;;;;;;2.10;1.73;;;;;;;9.74;47.12;95529.84;5003754;28;20298;-68
2023/01/06 08:06:29;;;;;;;3.20;2.10;;;;;;;9.91;46.34;95535.28;5000163;28;20225;-64
2023/01/06 08:08:54;;;;;;;3.00;1.70;;;;;;;9.87;46.33;95549.66;4996487;28;20277;-64
2023/01/06 08:11:20;;;;;;;4.47;1.90;;;;;;;9.72;46.73;95533.44;5001154;28;20302;-65
2023/01/06 08:13:46;;;;;;;2.17;1.60;;;;;;;9.70;46.67;95543.25;4996196;28;20220;-65
2023/01/06 08:16:11;;;;;;;2.07;1.60;;;;;;;9.76;46.96;95541.06;4981834;28;20219;-65
2023/01/06 08:18:37;;;;;;;2.00;1.73;;;;;;;9.77;47.02;95548.78;4979166;28;20279;-65
2023/01/06 08:21:06;;;;;;;1.63;1.33;;;;;;;9.95;45.82;95551.63;5019381;28;20211;-66
2023/01/06 08:23:32;;;;;;;2.43;1.40;;;;;;;10.10;45.63;95573.91;4996232;28;20220;-65
2023/01/06 08:26:09;;;;;;;2.40;1.50;;;;;;;10.21;46.59;95561.59;4983358;28;20227;-66
2023/01/06 08:28:35;;;;;;;2.67;1.77;;;;;;;10.19;45.75;95550.41;5014406;28;20226;-64
2023/01/06 08:31:01;;;;;;;3.37;1.80;;;;;;;10.27;45.80;95555.81;4996278;28;20215;-65
2023/01/06 08:33:27;;;;;;;4.60;1.67;;;;;;;10.25;45.71;95557.75;5001340;28;20183;-66
2023/01/06 08:36:02;;;;;;;1.90;1.70;;;;;;;10.57;44.44;95560.16;5001350;28;20214;-66
2023/01/06 08:38:29;;;;;;;2.90;1.50;;;;;;;10.53;44.95;95567.50;5010509;28;20234;-66
2023/01/06 08:40:56;;;;;;;3.00;1.40;;;;;;;10.24;46.26;95566.63;4996997;28;20223;-65
2023/01/06 08:43:22;;;;;;;3.63;1.70;;;;;;;10.27;44.72;95563.72;4997837;28;20254;-64
2023/01/06 08:45:48;;;;;;;2.97;1.50;;;;;;;10.06;46.00;95580.41;4991812;28;20199;-68
2023/01/06 08:48:13;;;;;;;2.60;1.43;;;;;;;10.44;45.03;95557.78;5000920;28;20195;-67
2023/01/06 08:50:40;;;;;;;3.23;1.50;;;;;;;10.52;44.09;95550.03;5024460;28;20227;-67
2023/01/06 08:53:05;;;;;;;1.43;1.20;;;;;;;10.45;44.22;95553.34;5002588;28;20227;-67
2023/01/06 08:55:31;;;;;;;1.97;0.90;;;;;;;10.24;44.58;95550.84;5008979;28;20211;-68
2023/01/06 08:57:56;;;;;;;3.13;1.00;;;;;;;10.45;45.02;95532.31;5002605;28;20316;-65
2023/01/06 09:00:22;;;;;;;1.50;1.20;;;;;;;10.65;44.33;95544.50;4993325;28;20223;-64
2023/01/06 09:02:47;;;;;;;1.80;1.30;;;;;;;10.81;43.70;95533.44;5003739;28;20265;-65
2023/01/06 09:05:13;;;;;;;2.53;1.07;;;;;;;10.64;42.72;95548.13;4999874;28;20223;-64
2023/01/06 09:07:39;;;;;;;1.20;1.00;;;;;;;10.64;42.83;95526.22;4991470;28;20284;-65
2023/01/06 09:10:05;;;;;;;1.67;1.10;;;;;;;10.71;42.79;95527.34;5001089;28;20183;-67
2023/01/06 09:12:30;;;;;;;2.80;1.00;;;;;;;10.65;43.99;95538.44;4999478;28;20207;-66
2023/01/06 09:14:56;;;;;;;1.20;0.97;;;;;;;10.59;43.19;95527.50;5017514;28;20219;-66
2023/01/06 09:17:21;;;;;;;2.73;1.03;;;;;;;10.66;43.61;95519.03;5013641;28;20261;-67
2023/01/06 09:19:47;;;;;;;3.50;1.07;;;;;;;10.78;43.52;95533.72;4997177;28;20227;-68
2023/01/06 09:22:12;;;;;;;2.07;1.10;;;;;;;10.91;42.56;95541.31;4983424;28;20242;-68
2023/01/06 09:24:37;;;;;;;1.90;1.30;;;;;;;10.95;42.67;95535.59;4999085;28;20222;-71
2023/01/06 09:27:03;;;;;;;2.40;1.00;;;;;;;11.00;41.77;95545.72;5001589;28;20265;-68
2023/01/06 09:29:28;;;;;;;2.30;1.10;;;;;;;10.85;41.81;95518.19;4999980;28;20235;-67
2023/01/06 09:31:54;;;;;;;1.77;1.10;;;;;;;10.58;42.91;95523.22;5002613;28;20240;-65
2023/01/06 09:34:19;;;;;;;1.70;1.17;;;;;;;10.72;42.52;95518.47;4999099;28;20226;-67
2023/01/06 09:36:45;;;;;;;1.87;1.10;;;;;;;10.92;42.80;95522.75;4976941;28;20210;-67
2023/01/06 09:39:10;;;;;;;3.90;1.00;;;;;;;11.04;41.53;95497.94;4998271;28;20227;-67
2023/01/06 09:41:59;;;;;;;1.53;1.00;;;;;;;11.13;40.92;95490.16;5000989;28;20249;-68
2023/01/06 09:44:30;;;;;;;2.10;1.00;;;;;;;11.31;41.02;95495.50;5007518;28;20277;-68
2023/01/06 09:46:57;;;;;;;2.27;1.30;;;;;;;11.47;40.65;95479.91;5001652;28;20228;-67
2023/01/06 09:49:27;;;;;;;3.00;1.40;;;;;;;11.39;41.28;95488.53;5001510;28;20223;-66
2023/01/06 09:52:02;;;;;;;3.73;1.43;;;;;;;11.64;40.66;95480.94;5001552;28;20215;-69
2023/01/06 09:54:41;;;;;;;3.30;1.30;;;;;;;11.53;41.07;95471.41;5020824;28;20206;-69
2023/01/06 09:57:17;;;;;;;2.90;1.50;;;;;;;11.07;41.63;95475.78;5005611;28;20543;-66
2023/01/06 10:00:02;;;;;;;2.60;1.50;;;;;;;11.57;40.16;95508.81;5004172;28;20223;-67
2023/01/06 10:02:39;;;;;;;1.73;1.13;;;;;;;11.28;40.86;95483.47;5000156;28;20254;-68
2023/01/06 10:05:40;;;;;;;1.60;0.80;;;;;;;11.06;41.76;95473.25;5022148;28;20219;-66
2023/01/06 10:08:30;;;;;;;3.20;1.03;;;;;;;11.11;40.94;95485.03;4964248;28;20234;-66
2023/01/06 10:11:37;;;;;;;4.10;1.33;;;;;;;10.94;41.30;95480.50;4963325;28;20263;-66
2023/01/06 10:14:15;;;;;;;3.07;1.00;;;;;;;10.86;41.19;95467.25;4887567;29;20218;-66
2023/01/06 10:16:50;;;;;;;2.50;0.97;;;;;;;10.89;41.03;95473.03;4884889;29;20344;-67
2023/01/06 10:19:42;;;;;;;1.67;1.20;;;;;;;10.81;41.19;95471.13;4869315;29;20237;-66
2023/01/06 10:22:24;;;;;;;1.87;0.80;;;;;;;11.00;40.97;95480.75;4887086;29;20261;-66
2023/01/06 10:25:04;;;;;;;2.47;1.30;;;;;;;11.19;41.04;95469.34;4886580;29;20206;-66
2023/01/06 10:27:39;;;;;;;2.50;1.20;;;;;;;11.34;40.75;95456.53;4876170;29;20191;-66
2023/01/06 10:30:18;;;;;;;1.30;1.13;;;;;;;11.42;40.32;95450.56;4877770;29;20257;-65
2023/01/06 10:32:46;;;;;;;1.23;0.90;;;;;;;11.25;40.84;95460.03;4891205;29;20257;-64
2023/01/06 10:35:17;;;;;;;4.40;1.30;;;;;;;11.16;40.82;95432.78;4889544;29;20230;-65
2023/01/06 10:37:48;;;;;;;1.63;1.23;;;;;;;11.27;39.60;95447.56;4871272;29;20234;-64
2023/01/06 10:40:19;;;;;;;1.83;1.13;;;;;;;11.01;40.91;95460.53;4876241;29;20332;-64
2023/01/06 10:43:02;;;;;;;2.40;1.20;;;;;;;11.48;39.96;95452.59;4876862;29;20289;-65
2023/01/06 10:45:37;;;;;;;1.47;1.10;;;;;;;11.50;40.59;95439.28;4913981;29;20225;-64
2023/01/06 10:48:05;;;;;;;1.63;1.13;;;;;;;11.51;40.46;95443.56;4928970;29;20228;-64
2023/01/06 10:50:33;;;;;;;1.63;1.20;;;;;;;11.86;39.96;95429.66;4957906;28;20256;-64
2023/01/06 10:52:58;;;;;;;2.67;1.20;;;;;;;12.05;39.51;95440.03;5001651;28;20345;-67
2023/01/06 10:55:24;;;;;;;1.40;1.23;;;;;;;12.00;40.00;95428.28;4990260;28;20231;-64
2023/01/06 10:57:51;;;;;;;1.87;1.20;;;;;;;12.31;38.21;95413.75;5020292;28;20242;-64
2023/01/06 11:00:23;;;;;;;2.77;1.33;;;;;;;12.47;38.35;95412.22;5008877;28;20341;-65
2023/01/06 11:02:54;;;;;;;2.15;0.98;;;;;;;12.50;37.82;95404.00;5021788;28;20222;-64
2023/01/06 11:05:29;;;;;;;2.67;1.43;;;;;;;12.66;37.15;95401.47;5020149;28;20219;-64
2023/01/06 11:08:04;;;;;;;1.77;1.20;;;;;;;12.57;37.03;95397.13;5000526;28;20350;-64
2023/01/06 11:10:33;;;;;;;3.53;1.50;;;;;;;12.73;37.17;95401.69;5010297;28;20529;-64
2023/01/06 11:13:01;;;;;;;1.60;1.50;;;;;;;12.73;37.28;95417.53;5005456;28;20300;-64
2023/01/06 11:15:34;;;;;;;3.27;1.50;;;;;;;12.97;37.51;95401.00;5007842;28;20186;-64
2023/01/06 11:18:01;;;;;;;6.15;1.25;;;;;;;13.14;37.27;95407.19;5017108;28;20222;-66
2023/01/06 11:20:30;;;;;;;1.85;1.50;;;;;;;13.11;36.98;95410.97;5018867;28;20217;-64
2023/01/06 11:23:12;;;;;;;1.97;1.30;;;;;;;13.16;36.27;95413.97;5017454;28;20229;-64
2023/01/06 11:25:38;;;;;;;1.63;1.47;;;;;;;12.89;37.11;95408.88;4996702;28;20223;-64
2023/01/06 11:28:21;;;;;;;3.50;1.43;;;;;;;13.04;36.55;95415.22;5004061;28;20195;-64
2023/01/06 11:30:57;;;;;;;2.33;1.40;;;;;;;12.97;37.21;95415.03;5005964;28;20210;-64
2023/01/06 11:33:26;;;;;;;2.67;1.30;;;;;;;12.81;37.34;95407.03;5002464;28;20273;-64
2023/01/06 11:35:53;;;;;;;1.73;1.33;;;;;;;12.71;37.53;95430.03;5005048;28;20219;-64
2023/01/06 11:38:20;;;;;;;22.23;1.73;;;;;;;12.54;37.65;95408.00;5018490;28;20223;-64
2023/01/06 11:40:48;;;;;;;1.30;1.20;;;;;;;12.65;37.51;95407.75;5001125;28;20221;-64
2023/01/06 11:43:26;;;;;;;1.10;1.00;;;;;;;12.77;37.46;95424.94;5018209;28;20230;-66
2023/01/06 11:45:56;;;;;;;1.70;1.40;;;;;;;12.52;37.92;95416.06;5007758;28;20190;-67
2023/01/06 11:48:27;;;;;;;1.23;1.13;;;;;;;12.36;38.29;95432.59;5022240;28;20857;-67
2023/01/06 11:50:56;;;;;;;1.63;1.20;;;;;;;12.55;37.74;95414.91;5015868;28;20223;-67